Terminal Aerodrome Forecast
Issued by NWS Duluth, MN

Home | Current Version | Previous Version | Text Only | Print | Product List | Glossary On
Versions: 1 2 3 4 5 6 7 8 9 10 11 12 13 14 15 16 17 18 19 20
429
FTUS43 KDLH 272335
TAFINL
TAF
KINL 272335Z 2800/2824 VRB03KT P6SM SCT100
     FM280200 35005KT P6SM VCSH SCT060 BKN120
     FM280900 36005KT P6SM BKN150
     FM281400 03007KT P6SM SCT250=

USA.gov is the U.S. government's official web portal to all federal, state and local government web resources and services.